Time;durP1;ratioP1;P1;durP2;ratioP2;P2;SDS_P1;SDS_P2;PMS_P1;PMS_P2;Temp;Humidity;BMP_temperature;BMP_pressure;BME280_temperature;BME280_humidity;BME280_pressure;Samples;Min_cycle;Max_cycle;Signal;HPM_P1;HPM_P2
2023/01/08 00:01:44;;;;;;;2.90;2.53;;;;;;;10.89;100.00;99501.44;5015221;28;20489;-52
2023/01/08 00:04:10;;;;;;;2.30;1.90;;;;;;;10.86;100.00;99500.72;5015314;28;20449;-52
2023/01/08 00:06:37;;;;;;;1.57;1.47;;;;;;;10.88;100.00;99497.06;5007368;28;20476;-51
2023/01/08 00:09:03;;;;;;;3.97;2.00;;;;;;;10.98;100.00;99492.22;5002212;28;20531;-51
2023/01/08 00:11:29;;;;;;;0.80;0.70;;;;;;;10.89;100.00;99487.28;5002060;28;20449;-53
2023/01/08 00:13:56;;;;;;;1.03;0.93;;;;;;;10.94;100.00;99494.13;5015289;28;20498;-51
2023/01/08 00:16:22;;;;;;;2.10;2.00;;;;;;;10.91;100.00;99485.41;5014993;28;21120;-53
2023/01/08 00:18:49;;;;;;;5.27;3.60;;;;;;;11.00;100.00;99482.38;5007964;28;21023;-53
2023/01/08 00:21:15;;;;;;;7.97;2.73;;;;;;;11.00;100.00;99477.06;5008651;28;20492;-54
2023/01/08 00:23:41;;;;;;;2.23;2.03;;;;;;;10.98;100.00;99470.94;5002148;28;20456;-52
2023/01/08 00:26:09;;;;;;;2.43;1.60;;;;;;;11.01;100.00;99467.28;5015146;28;20452;-53
2023/01/08 00:28:37;;;;;;;2.97;1.93;;;;;;;11.05;100.00;99469.72;5014892;28;20468;-53
2023/01/08 00:31:04;;;;;;;3.73;2.10;;;;;;;11.04;100.00;99459.16;5014813;28;20452;-52
2023/01/08 00:33:31;;;;;;;3.33;3.03;;;;;;;11.05;100.00;99458.22;5007197;28;20531;-53
2023/01/08 00:35:58;;;;;;;1.67;1.57;;;;;;;11.13;100.00;99456.09;5009048;28;20453;-53
2023/01/08 00:38:28;;;;;;;2.10;1.80;;;;;;;11.12;100.00;99462.34;5007075;28;20487;-53
2023/01/08 00:40:55;;;;;;;2.00;1.37;;;;;;;11.13;100.00;99464.09;5009446;28;20495;-52
2023/01/08 00:43:21;;;;;;;2.30;2.10;;;;;;;11.16;100.00;99458.63;5006335;28;20556;-53
2023/01/08 00:45:52;;;;;;;1.93;1.83;;;;;;;11.30;100.00;99460.66;5009549;28;20456;-52
2023/01/08 00:48:21;;;;;;;3.53;3.33;;;;;;;11.22;100.00;99469.84;5014587;28;20551;-53
2023/01/08 00:50:48;;;;;;;2.37;2.17;;;;;;;11.32;100.00;99459.66;5014232;28;20460;-54
2023/01/08 00:53:15;;;;;;;4.10;3.03;;;;;;;11.24;100.00;99459.16;5014368;28;21024;-53
2023/01/08 00:55:41;;;;;;;2.83;1.83;;;;;;;11.32;100.00;99454.34;5014201;28;20942;-53
2023/01/08 00:58:08;;;;;;;1.90;1.50;;;;;;;11.30;100.00;99458.88;5004758;28;20477;-55
2023/01/08 01:00:34;;;;;;;3.93;1.90;;;;;;;11.25;100.00;99458.22;5011345;28;20481;-53
2023/01/08 01:03:00;;;;;;;1.10;1.00;;;;;;;11.40;100.00;99441.56;5014204;28;20835;-53
2023/01/08 01:05:27;;;;;;;3.47;2.40;;;;;;;11.36;100.00;99453.25;5013947;28;20448;-54
2023/01/08 01:07:53;;;;;;;1.80;1.53;;;;;;;11.33;100.00;99450.75;4998866;28;20527;-53
2023/01/08 01:10:19;;;;;;;1.27;1.17;;;;;;;11.37;100.00;99451.47;5010812;28;20456;-53
2023/01/08 01:12:46;;;;;;;2.93;2.60;;;;;;;11.40;100.00;99446.88;5003083;28;20874;-53
2023/01/08 01:15:15;;;;;;;2.93;1.60;;;;;;;11.40;100.00;99452.22;5011130;28;20463;-53
2023/01/08 01:17:44;;;;;;;1.33;1.23;;;;;;;11.42;100.00;99454.78;5003209;28;20512;-53
2023/01/08 01:20:14;;;;;;;1.10;0.87;;;;;;;11.35;100.00;99456.84;5011644;28;20457;-54
2023/01/08 01:22:41;;;;;;;1.33;1.23;;;;;;;11.30;100.00;99455.34;5014245;28;20548;-54
2023/01/08 01:25:08;;;;;;;1.73;1.63;;;;;;;11.45;100.00;99459.97;5013679;28;20823;-53
2023/01/08 01:27:34;;;;;;;1.30;1.20;;;;;;;11.37;100.00;99446.13;5013795;28;20481;-54
2023/01/08 01:30:05;;;;;;;1.03;0.90;;;;;;;11.44;100.00;99443.13;5013620;28;20448;-54
2023/01/08 01:32:32;;;;;;;4.97;1.10;;;;;;;11.32;100.00;99448.16;5013387;28;20448;-53
2023/01/08 01:34:59;;;;;;;3.27;3.07;;;;;;;11.54;100.00;99444.44;5000662;28;20502;-53
2023/01/08 01:37:26;;;;;;;2.80;1.73;;;;;;;11.47;100.00;99453.63;5008831;28;20477;-54
2023/01/08 01:39:54;;;;;;;3.13;1.50;;;;;;;11.45;100.00;99463.50;5000537;28;20449;-53
2023/01/08 01:42:39;;;;;;;1.60;1.50;;;;;;;11.44;100.00;99460.91;5013532;28;20490;-52
2023/01/08 01:45:21;;;;;;;1.87;1.47;;;;;;;11.54;100.00;99459.56;4993961;28;20449;-53
2023/01/08 01:47:58;;;;;;;6.13;1.17;;;;;;;11.61;100.00;99460.13;5007780;28;20576;-52
2023/01/08 01:50:27;;;;;;;1.67;1.20;;;;;;;11.44;100.00;99453.78;5013504;28;20530;-54
2023/01/08 01:53:08;;;;;;;0.90;0.87;;;;;;;11.48;100.00;99455.38;5013395;28;20449;-54
2023/01/08 01:55:38;;;;;;;0.60;0.60;;;;;;;11.59;100.00;99452.22;5013097;28;20495;-53
2023/01/08 01:58:14;;;;;;;0.70;0.70;;;;;;;11.44;100.00;99443.13;5013446;28;20534;-54
2023/01/08 02:00:41;;;;;;;0.50;0.50;;;;;;;11.44;100.00;99444.94;5013236;28;20487;-53
2023/01/08 02:03:10;;;;;;;0.70;0.60;;;;;;;11.41;100.00;99445.09;5000953;28;20461;-53
2023/01/08 02:05:59;;;;;;;0.80;0.57;;;;;;;11.47;100.00;99435.00;5011751;28;20453;-53
2023/01/08 02:08:39;;;;;;;0.67;0.50;;;;;;;11.21;100.00;99433.53;5000324;28;20476;-53
2023/01/08 02:11:13;;;;;;;1.23;0.50;;;;;;;11.24;100.00;99436.09;5003953;28;20449;-53
2023/01/08 02:13:44;;;;;;;2.10;0.70;;;;;;;11.22;100.00;99439.72;5025466;28;20455;-53
2023/01/08 02:16:32;;;;;;;2.10;1.30;;;;;;;11.20;100.00;99436.25;5012894;28;20460;-53
2023/01/08 02:19:12;;;;;;;3.37;1.17;;;;;;;11.20;100.00;99436.25;5004592;28;20944;-53
2023/01/08 02:22:17;;;;;;;0.90;0.90;;;;;;;11.10;100.00;99432.28;5006129;28;20857;-53
2023/01/08 02:24:55;;;;;;;1.60;1.50;;;;;;;11.28;100.00;99426.16;5008784;28;20452;-53
2023/01/08 02:27:26;;;;;;;2.53;0.83;;;;;;;11.06;100.00;99423.59;5002685;28;20476;-52
2023/01/08 02:29:55;;;;;;;0.50;0.50;;;;;;;11.15;100.00;99419.66;4999655;28;20881;-53
2023/01/08 02:32:25;;;;;;;1.27;1.17;;;;;;;11.11;100.00;99412.75;5012796;28;20445;-53
2023/01/08 02:34:53;;;;;;;1.33;0.63;;;;;;;11.12;100.00;99404.72;5012447;28;20444;-53
2023/01/08 02:37:19;;;;;;;1.43;0.93;;;;;;;11.33;100.00;99404.66;5012787;28;20487;-53
2023/01/08 02:40:01;;;;;;;0.70;0.70;;;;;;;11.26;100.00;99399.63;4993449;28;20456;-54
2023/01/08 02:42:40;;;;;;;1.47;1.03;;;;;;;11.23;100.00;99402.41;4995935;28;20480;-54
2023/01/08 02:45:18;;;;;;;3.23;0.80;;;;;;;11.22;100.00;99389.16;5002957;28;20452;-53
2023/01/08 02:47:52;;;;;;;0.60;0.60;;;;;;;11.15;100.00;99380.63;5012566;28;20464;-53
2023/01/08 02:50:54;;;;;;;1.33;1.23;;;;;;;11.24;100.00;99377.56;5012666;28;20423;-52
2023/01/08 02:53:26;;;;;;;1.23;0.97;;;;;;;11.08;100.00;99370.31;4992991;28;20460;-53
2023/01/08 02:55:58;;;;;;;0.63;0.50;;;;;;;11.03;100.00;99370.53;5005794;28;20461;-54
2023/01/08 02:58:28;;;;;;;1.20;0.93;;;;;;;11.06;100.00;99361.56;5006105;28;20505;-53
2023/01/08 03:00:55;;;;;;;7.30;1.40;;;;;;;11.05;100.00;99357.16;4999357;28;20488;-54
2023/01/08 03:03:25;;;;;;;0.70;0.70;;;;;;;11.10;100.00;99355.16;4999394;28;20453;-53
2023/01/08 03:05:56;;;;;;;0.60;0.53;;;;;;;10.99;100.00;99347.69;4997573;28;20457;-52
2023/01/08 03:08:24;;;;;;;1.10;1.00;;;;;;;11.05;100.00;99351.84;5006601;28;20472;-53
2023/01/08 03:10:59;;;;;;;1.47;1.17;;;;;;;10.99;100.00;99358.31;5000934;28;20845;-53
2023/01/08 03:13:36;;;;;;;0.67;0.67;;;;;;;10.94;100.00;99355.00;5012432;28;20447;-53
2023/01/08 03:16:09;;;;;;;1.23;1.13;;;;;;;10.95;100.00;99349.59;5012424;28;20531;-53
2023/01/08 03:18:44;;;;;;;1.00;1.00;;;;;;;11.04;100.00;99351.00;4998902;28;20464;-52
2023/01/08 03:21:12;;;;;;;0.70;0.60;;;;;;;11.00;100.00;99348.56;5009026;28;20494;-52
2023/01/08 03:23:40;;;;;;;0.70;0.70;;;;;;;10.94;100.00;99347.00;4999182;28;20456;-52
2023/01/08 03:26:08;;;;;;;0.60;0.50;;;;;;;10.94;100.00;99349.66;4999077;28;20457;-50
2023/01/08 03:28:40;;;;;;;0.70;0.60;;;;;;;11.02;100.00;99350.19;5012171;28;20479;-51
2023/01/08 03:31:08;;;;;;;0.50;0.50;;;;;;;10.93;100.00;99348.81;5012072;28;20503;-53
2023/01/08 03:33:35;;;;;;;1.00;0.80;;;;;;;10.95;100.00;99344.28;5012381;28;20453;-51
2023/01/08 03:36:05;;;;;;;2.50;1.00;;;;;;;10.93;100.00;99334.66;5014974;28;20555;-52
2023/01/08 03:38:39;;;;;;;0.80;0.70;;;;;;;10.83;100.00;99334.22;5006962;28;21016;-52
2023/01/08 03:41:11;;;;;;;0.67;0.47;;;;;;;10.77;100.00;99328.31;5012181;28;20496;-53
2023/01/08 03:43:38;;;;;;;0.93;0.70;;;;;;;10.73;100.00;99322.28;5015704;28;20463;-52
2023/01/08 03:46:12;;;;;;;0.77;0.77;;;;;;;10.84;100.00;99324.47;5015864;28;20452;-53
2023/01/08 03:48:40;;;;;;;1.07;0.93;;;;;;;10.85;100.00;99310.22;5015640;28;20926;-53
2023/01/08 03:51:10;;;;;;;0.70;0.60;;;;;;;10.83;100.00;99304.97;5010708;28;20981;-53
2023/01/08 03:53:36;;;;;;;0.70;0.60;;;;;;;10.88;100.00;99304.75;5007586;28;20456;-53
2023/01/08 03:56:03;;;;;;;1.80;0.90;;;;;;;10.92;100.00;99307.19;4984929;28;20820;-51
2023/01/08 03:58:29;;;;;;;1.13;1.13;;;;;;;10.83;100.00;99307.66;5003171;28;20850;-51
2023/01/08 04:00:56;;;;;;;3.63;0.93;;;;;;;10.72;100.00;99293.09;5015568;28;20453;-52
2023/01/08 04:03:23;;;;;;;0.90;0.77;;;;;;;10.65;100.00;99288.06;5004324;28;20464;-52
2023/01/08 04:05:50;;;;;;;1.73;1.50;;;;;;;10.47;100.00;99288.88;5015467;28;20476;-52
2023/01/08 04:08:16;;;;;;;1.00;0.80;;;;;;;10.61;100.00;99286.47;4997184;28;20477;-52
2023/01/08 04:10:42;;;;;;;0.70;0.70;;;;;;;10.73;100.00;99282.41;5015196;28;20453;-52
2023/01/08 04:13:09;;;;;;;1.00;1.00;;;;;;;10.73;100.00;99286.84;5014989;28;21020;-51
2023/01/08 04:15:35;;;;;;;1.30;1.13;;;;;;;10.80;100.00;99288.28;5011755;28;20450;-53
2023/01/08 04:18:02;;;;;;;0.63;0.63;;;;;;;10.72;100.00;99291.31;5009116;28;20556;-52
2023/01/08 04:20:28;;;;;;;1.23;0.83;;;;;;;10.64;100.00;99293.44;5008417;28;20504;-53
2023/01/08 04:22:54;;;;;;;0.50;0.50;;;;;;;10.62;100.00;99276.72;5008526;28;20488;-52
2023/01/08 04:25:21;;;;;;;0.77;0.77;;;;;;;10.70;100.00;99285.22;5014909;28;20526;-53
2023/01/08 04:27:47;;;;;;;1.27;0.70;;;;;;;10.68;100.00;99281.72;5014654;28;20895;-54
2023/01/08 04:30:13;;;;;;;1.37;1.00;;;;;;;10.79;100.00;99276.78;5012357;28;21007;-53
2023/01/08 04:32:40;;;;;;;0.80;0.60;;;;;;;10.65;100.00;99281.88;5009304;28;20448;-53
2023/01/08 04:35:07;;;;;;;0.70;0.70;;;;;;;10.63;100.00;99284.59;5014898;28;20460;-53
2023/01/08 04:37:33;;;;;;;1.13;0.97;;;;;;;10.64;100.00;99280.16;5013860;28;20997;-52
2023/01/08 04:39:59;;;;;;;0.63;0.60;;;;;;;10.70;100.00;99284.34;5002373;28;20453;-53
2023/01/08 04:42:26;;;;;;;0.60;0.60;;;;;;;10.76;100.00;99284.91;5014700;28;20579;-52
2023/01/08 04:44:52;;;;;;;0.83;0.83;;;;;;;10.79;100.00;99276.78;5014221;28;20842;-52
2023/01/08 04:47:18;;;;;;;0.73;0.73;;;;;;;10.68;100.00;99290.56;5001227;28;20473;-52
2023/01/08 04:49:45;;;;;;;9.33;1.37;;;;;;;10.73;100.00;99287.72;5014545;28;20452;-53
2023/01/08 04:52:12;;;;;;;1.07;0.97;;;;;;;10.76;100.00;99274.28;5014407;28;20500;-53
2023/01/08 04:54:38;;;;;;;6.70;0.90;;;;;;;10.87;100.00;99279.97;5014318;28;20449;-52
2023/01/08 04:57:04;;;;;;;0.80;0.80;;;;;;;10.70;100.00;99279.91;5014327;28;20473;-53
2023/01/08 04:59:31;;;;;;;0.80;0.60;;;;;;;10.84;100.00;99279.25;5013903;28;20514;-52
2023/01/08 05:01:57;;;;;;;0.50;0.40;;;;;;;10.82;100.00;99281.09;5001142;28;20540;-53
2023/01/08 05:04:24;;;;;;;1.30;1.10;;;;;;;10.95;100.00;99274.28;5014249;28;20456;-54
2023/01/08 05:06:50;;;;;;;0.70;0.53;;;;;;;10.79;100.00;99283.91;5007289;28;20546;-53
2023/01/08 05:09:17;;;;;;;0.90;0.90;;;;;;;10.77;100.00;99278.66;5002844;28;20423;-53
2023/01/08 05:11:43;;;;;;;0.40;0.30;;;;;;;10.72;100.00;99283.34;5014313;28;20451;-53
2023/01/08 05:14:09;;;;;;;0.60;0.50;;;;;;;10.69;100.00;99291.47;5013933;28;20829;-53
2023/01/08 05:16:36;;;;;;;0.93;0.70;;;;;;;10.77;100.00;99291.97;5000862;28;20556;-52
2023/01/08 05:19:02;;;;;;;0.40;0.40;;;;;;;10.70;100.00;99287.88;5005349;28;20934;-53
2023/01/08 05:21:29;;;;;;;0.50;0.30;;;;;;;10.70;100.00;99279.91;5005264;28;20865;-53
2023/01/08 05:23:55;;;;;;;0.80;0.57;;;;;;;10.74;100.00;99264.66;4998111;28;20464;-53
2023/01/08 05:26:22;;;;;;;0.53;0.40;;;;;;;10.66;100.00;99265.84;5009893;28;20453;-52
2023/01/08 05:28:48;;;;;;;0.53;0.43;;;;;;;10.62;100.00;99258.09;5013788;28;20976;-53
2023/01/08 05:31:15;;;;;;;0.50;0.40;;;;;;;10.57;100.00;99262.78;5010717;28;20467;-51
2023/01/08 05:33:42;;;;;;;0.70;0.67;;;;;;;10.58;100.00;99273.34;5005310;28;20957;-53
2023/01/08 05:36:11;;;;;;;0.50;0.40;;;;;;;10.55;100.00;99273.47;5001668;28;20449;-52
2023/01/08 05:38:37;;;;;;;1.33;0.70;;;;;;;10.54;100.00;99262.88;5011869;28;20888;-48
2023/01/08 05:41:04;;;;;;;0.60;0.60;;;;;;;10.53;100.00;99263.81;5000388;28;20475;-47
2023/01/08 05:43:31;;;;;;;0.40;0.37;;;;;;;10.54;100.00;99262.88;4998434;28;20489;-49
2023/01/08 05:45:59;;;;;;;0.70;0.70;;;;;;;10.53;100.00;99262.03;5005375;28;20970;-49
2023/01/08 05:48:27;;;;;;;0.70;0.70;;;;;;;10.54;100.00;99268.19;5006947;28;20516;-48
2023/01/08 05:50:54;;;;;;;0.50;0.50;;;;;;;10.49;100.00;99262.25;5010948;28;20527;-48
2023/01/08 05:53:21;;;;;;;3.50;1.00;;;;;;;10.48;100.00;99263.19;5004998;28;20533;-48
2023/01/08 05:55:47;;;;;;;0.40;0.30;;;;;;;10.62;100.00;99271.38;5011599;28;20539;-50
2023/01/08 05:58:17;;;;;;;0.43;0.40;;;;;;;10.61;100.00;99264.34;5012810;28;20491;-48
2023/01/08 06:00:44;;;;;;;0.90;0.50;;;;;;;10.59;100.00;99266.22;5003106;28;20515;-49
2023/01/08 06:03:11;;;;;;;0.50;0.40;;;;;;;10.57;100.00;99263.63;4996171;28;20508;-51
2023/01/08 06:05:37;;;;;;;0.40;0.33;;;;;;;10.58;100.00;99257.38;5010443;28;20449;-49
2023/01/08 06:08:04;;;;;;;1.07;1.00;;;;;;;10.44;100.00;99253.63;4999220;28;20544;-48
2023/01/08 06:10:33;;;;;;;0.47;0.37;;;;;;;10.46;100.00;99254.41;5011385;28;20445;-49
2023/01/08 06:13:00;;;;;;;0.60;0.60;;;;;;;10.46;100.00;99252.63;5012792;28;20528;-48
2023/01/08 06:15:26;;;;;;;0.40;0.40;;;;;;;10.47;100.00;99256.16;4996511;28;20453;-48
2023/01/08 06:17:53;;;;;;;0.60;0.50;;;;;;;10.64;100.00;99264.22;5004124;28;20476;-49
2023/01/08 06:20:19;;;;;;;0.80;0.80;;;;;;;10.51;100.00;99250.63;5009645;28;20467;-48
2023/01/08 06:22:45;;;;;;;0.40;0.30;;;;;;;10.55;100.00;99248.66;5010180;28;20499;-49
2023/01/08 06:25:12;;;;;;;0.50;0.40;;;;;;;10.56;100.00;99250.44;4988311;28;20515;-48
2023/01/08 06:27:38;;;;;;;0.40;0.40;;;;;;;10.54;100.00;99257.56;5010848;28;20468;-48
2023/01/08 06:30:06;;;;;;;0.50;0.40;;;;;;;10.53;100.00;99250.53;4999545;28;20827;-48
2023/01/08 06:32:33;;;;;;;1.43;0.50;;;;;;;10.57;100.00;99260.13;5007955;28;20532;-49
2023/01/08 06:34:59;;;;;;;0.50;0.40;;;;;;;10.53;100.00;99255.84;5012678;28;20937;-48
2023/01/08 06:37:26;;;;;;;1.60;0.53;;;;;;;10.47;100.00;99267.63;5007184;28;20481;-49
2023/01/08 06:39:52;;;;;;;2.27;0.83;;;;;;;10.54;100.00;99258.44;5007367;28;20899;-49
2023/01/08 06:42:19;;;;;;;0.40;0.37;;;;;;;10.53;100.00;99267.34;5001935;28;20489;-51
2023/01/08 06:44:45;;;;;;;1.50;1.10;;;;;;;10.45;100.00;99255.34;4997826;28;20504;-51
2023/01/08 06:47:11;;;;;;;0.70;0.50;;;;;;;10.46;100.00;99262.38;5001310;28;20482;-51
2023/01/08 06:49:38;;;;;;;1.40;0.50;;;;;;;10.51;100.00;99268.34;4999022;28;20475;-52
2023/01/08 06:52:04;;;;;;;0.30;0.20;;;;;;;10.50;100.00;99267.47;4998854;28;20456;-50
2023/01/08 06:54:31;;;;;;;0.63;0.30;;;;;;;10.49;100.00;99271.06;5000456;28;20460;-51
2023/01/08 06:56:57;;;;;;;0.43;0.40;;;;;;;10.50;100.00;99264.81;4999851;28;20479;-51
2023/01/08 06:59:23;;;;;;;0.70;0.50;;;;;;;10.43;100.00;99263.41;5008417;28;20449;-51
2023/01/08 07:01:50;;;;;;;0.67;0.50;;;;;;;10.36;100.00;99261.94;4994147;28;20536;-50
2023/01/08 07:04:17;;;;;;;0.40;0.30;;;;;;;10.44;100.00;99264.25;5000573;28;20452;-50
2023/01/08 07:06:45;;;;;;;0.40;0.40;;;;;;;10.52;100.00;99267.41;5002585;28;20481;-50
2023/01/08 07:09:13;;;;;;;0.40;0.30;;;;;;;10.45;100.00;99265.97;5000698;28;20457;-53
2023/01/08 07:11:40;;;;;;;0.40;0.30;;;;;;;10.45;100.00;99265.97;5003052;28;20459;-51
2023/01/08 07:14:07;;;;;;;0.33;0.30;;;;;;;10.61;100.00;99265.22;5014932;28;20881;-51
2023/01/08 07:16:34;;;;;;;0.77;0.30;;;;;;;10.46;100.00;99271.22;5002882;28;20423;-50
2023/01/08 07:19:00;;;;;;;0.40;0.30;;;;;;;10.40;100.00;99271.47;5014231;28;20826;-50
2023/01/08 07:21:27;;;;;;;0.87;0.40;;;;;;;10.42;100.00;99269.63;5003267;28;20830;-50
2023/01/08 07:23:53;;;;;;;4.20;0.40;;;;;;;10.42;100.00;99268.78;5007998;28;20492;-49
2023/01/08 07:26:19;;;;;;;0.57;0.33;;;;;;;10.42;100.00;99261.66;5013041;28;20457;-49
2023/01/08 07:28:46;;;;;;;0.40;0.40;;;;;;;10.37;100.00;99279.59;5013733;28;20448;-50
2023/01/08 07:31:12;;;;;;;0.43;0.33;;;;;;;10.42;100.00;99282.94;5001059;28;20560;-49
2023/01/08 07:33:39;;;;;;;2.00;0.53;;;;;;;10.41;100.00;99281.16;5016152;28;20483;-49
2023/01/08 07:36:06;;;;;;;0.30;0.20;;;;;;;10.45;100.00;99281.91;5005357;28;20451;-49
2023/01/08 07:38:32;;;;;;;0.50;0.30;;;;;;;10.58;100.00;99285.75;5006169;28;20564;-49
2023/01/08 07:40:59;;;;;;;0.50;0.50;;;;;;;10.46;100.00;99294.28;5012361;28;20449;-50
2023/01/08 07:43:25;;;;;;;0.60;0.30;;;;;;;10.31;100.00;99288.69;5015696;28;20595;-50
2023/01/08 07:45:51;;;;;;;0.40;0.20;;;;;;;10.35;100.00;99290.28;5015578;28;20948;-49
2023/01/08 07:48:18;;;;;;;0.50;0.40;;;;;;;10.36;100.00;99270.75;5011956;28;20551;-50
2023/01/08 07:50:44;;;;;;;0.30;0.30;;;;;;;10.36;100.00;99267.25;5011485;28;20818;-49
2023/01/08 07:53:12;;;;;;;0.40;0.30;;;;;;;10.32;100.00;99273.63;5008233;28;20966;-49
2023/01/08 07:55:39;;;;;;;0.43;0.40;;;;;;;10.48;100.00;99276.47;5005716;28;20498;-50
2023/01/08 07:58:13;;;;;;;0.40;0.30;;;;;;;10.48;100.00;99277.31;5015830;28;20495;-49
2023/01/08 08:00:40;;;;;;;0.60;0.37;;;;;;;10.43;100.00;99284.66;5015336;28;20530;-49
2023/01/08 08:03:10;;;;;;;0.30;0.30;;;;;;;10.42;100.00;99287.38;5015394;28;20492;-48
2023/01/08 08:05:37;;;;;;;0.40;0.20;;;;;;;10.27;100.00;99286.22;5015318;28;20455;-49
2023/01/08 08:08:09;;;;;;;0.40;0.20;;;;;;;10.32;100.00;99284.25;4998567;28;20481;-50
2023/01/08 08:10:36;;;;;;;0.47;0.30;;;;;;;10.47;100.00;99288.88;4994343;28;20446;-49
2023/01/08 08:13:03;;;;;;;0.50;0.50;;;;;;;10.51;100.00;99287.81;5008909;28;20449;-49
2023/01/08 08:15:30;;;;;;;0.30;0.20;;;;;;;10.41;100.00;99291.78;5002245;28;20456;-49
2023/01/08 08:17:56;;;;;;;0.33;0.27;;;;;;;10.47;100.00;99290.69;5002220;28;20479;-50
2023/01/08 08:20:23;;;;;;;0.40;0.30;;;;;;;10.51;100.00;99289.59;5001513;28;20452;-49
2023/01/08 08:22:49;;;;;;;0.40;0.30;;;;;;;10.46;100.00;99286.31;4984759;28;20494;-51
2023/01/08 08:25:16;;;;;;;1.93;0.50;;;;;;;10.41;100.00;99285.63;5002072;28;20463;-49
2023/01/08 08:27:43;;;;;;;0.60;0.40;;;;;;;10.47;100.00;99288.88;5014970;28;20469;-51
2023/01/08 08:30:11;;;;;;;0.40;0.20;;;;;;;10.41;100.00;99289.13;5008825;28;20483;-49
2023/01/08 08:32:38;;;;;;;0.30;0.20;;;;;;;10.38;100.00;99290.13;5008378;28;20452;-49
2023/01/08 08:35:05;;;;;;;0.50;0.40;;;;;;;10.45;100.00;99290.75;5014856;28;20452;-49
2023/01/08 08:37:31;;;;;;;0.50;0.30;;;;;;;10.40;100.00;99282.09;5014526;28;20491;-49
2023/01/08 08:39:58;;;;;;;0.40;0.30;;;;;;;10.41;100.00;99267.88;5008654;28;20457;-50
2023/01/08 08:42:24;;;;;;;1.67;0.70;;;;;;;10.34;100.00;99266.44;5008327;28;20861;-49
2023/01/08 08:44:50;;;;;;;0.50;0.40;;;;;;;10.33;100.00;99268.25;5014784;28;20460;-49
2023/01/08 08:47:17;;;;;;;0.70;0.47;;;;;;;10.37;100.00;99275.13;5014669;28;20472;-51
2023/01/08 08:49:43;;;;;;;0.60;0.30;;;;;;;10.35;100.00;99270.81;5014633;28;20454;-49
2023/01/08 08:52:10;;;;;;;0.40;0.33;;;;;;;10.29;100.00;99264.00;5014254;28;20453;-50
2023/01/08 08:54:40;;;;;;;0.60;0.53;;;;;;;10.47;100.00;99262.31;5014405;28;20966;-49
2023/01/08 08:57:08;;;;;;;0.30;0.20;;;;;;;10.34;100.00;99264.66;5014134;28;20495;-49
2023/01/08 08:59:35;;;;;;;0.40;0.27;;;;;;;10.33;100.00;99254.97;5014522;28;20472;-49
2023/01/08 09:02:02;;;;;;;0.43;0.27;;;;;;;10.31;100.00;99270.09;4996970;28;20476;-49
2023/01/08 09:04:31;;;;;;;0.80;0.37;;;;;;;10.23;100.00;99266.91;5014590;28;20492;-49
2023/01/08 09:06:59;;;;;;;0.40;0.40;;;;;;;10.39;100.00;99267.97;5007187;28;20484;-49
2023/01/08 09:09:26;;;;;;;0.30;0.20;;;;;;;10.32;100.00;99274.50;5004346;28;20537;-50
2023/01/08 09:11:52;;;;;;;3.23;0.50;;;;;;;10.57;100.00;99276.94;5014207;28;20457;-49
2023/01/08 09:14:19;;;;;;;0.60;0.50;;;;;;;10.55;100.00;99281.44;5004623;28;20947;-49
2023/01/08 09:16:46;;;;;;;0.40;0.20;;;;;;;10.55;100.00;99281.44;5010616;28;20464;-49
2023/01/08 09:19:12;;;;;;;0.30;0.20;;;;;;;10.51;100.00;99290.47;5013870;28;20456;-50
2023/01/08 09:21:39;;;;;;;1.03;0.40;;;;;;;10.53;100.00;99285.06;5013829;28;20445;-50
2023/01/08 09:24:06;;;;;;;0.40;0.33;;;;;;;10.55;100.00;99286.75;5014080;28;20498;-49
2023/01/08 09:26:32;;;;;;;0.40;0.30;;;;;;;10.50;100.00;99286.09;5013875;28;20453;-49
2023/01/08 09:28:59;;;;;;;1.03;1.03;;;;;;;10.43;100.00;99292.63;5014074;28;20457;-49
2023/01/08 09:31:26;;;;;;;0.77;0.77;;;;;;;10.51;100.00;99290.47;5013308;28;20452;-49
2023/01/08 09:33:52;;;;;;;0.60;0.60;;;;;;;10.57;100.00;99284.03;5013556;28;20448;-49
2023/01/08 09:36:19;;;;;;;0.40;0.30;;;;;;;10.62;100.00;99290.84;5014147;28;20536;-49
2023/01/08 09:38:45;;;;;;;3.83;0.60;;;;;;;10.61;100.00;99277.63;5003883;28;20508;-50
2023/01/08 09:41:29;;;;;;;0.60;0.40;;;;;;;10.58;100.00;99285.75;5011237;28;20454;-49
2023/01/08 09:43:58;;;;;;;1.37;0.30;;;;;;;10.51;100.00;99277.19;5013777;28;20511;-49
2023/01/08 09:46:27;;;;;;;0.70;0.50;;;;;;;10.59;100.00;99276.84;5013571;28;20539;-49
2023/01/08 09:49:03;;;;;;;0.40;0.30;;;;;;;10.64;100.00;99289.00;5013597;28;20449;-53
2023/01/08 09:51:33;;;;;;;0.40;0.30;;;;;;;10.84;100.00;99282.78;5013516;28;20449;-49
2023/01/08 09:54:01;;;;;;;3.03;0.50;;;;;;;10.82;100.00;99281.09;5013445;28;20445;-49
2023/01/08 09:56:28;;;;;;;1.90;0.57;;;;;;;10.87;100.00;99287.09;5013411;28;20511;-50
2023/01/08 09:59:00;;;;;;;0.40;0.30;;;;;;;11.03;100.00;99276.59;5001299;28;21001;-49
2023/01/08 10:01:46;;;;;;;0.90;0.50;;;;;;;11.00;100.00;99282.06;5013469;28;20448;-50
2023/01/08 10:04:14;;;;;;;0.40;0.30;;;;;;;11.10;100.00;99281.56;4993820;28;20663;-49
2023/01/08 10:06:48;;;;;;;0.40;0.30;;;;;;;10.97;100.00;99269.78;5006801;28;20993;-50
2023/01/08 10:09:15;;;;;;;0.43;0.30;;;;;;;11.15;100.00;99271.56;5001541;28;20448;-51
2023/01/08 10:11:45;;;;;;;0.40;0.30;;;;;;;11.17;100.00;99267.03;5013198;28;20455;-50
2023/01/08 10:14:22;;;;;;;0.40;0.20;;;;;;;11.13;100.00;99268.13;5013048;28;20885;-50
2023/01/08 10:16:57;;;;;;;0.60;0.40;;;;;;;10.92;100.00;99264.66;5012889;28;20472;-50
2023/01/08 10:19:24;;;;;;;0.50;0.33;;;;;;;11.03;100.00;99261.50;5012988;28;20444;-49
2023/01/08 10:21:50;;;;;;;0.40;0.30;;;;;;;10.87;100.00;99253.41;4995633;28;20458;-49
2023/01/08 10:24:30;;;;;;;0.40;0.30;;;;;;;10.95;100.00;99237.06;5012968;28;20492;-50
2023/01/08 10:27:15;;;;;;;0.50;0.40;;;;;;;10.95;100.00;99245.91;4993468;28;20469;-50
2023/01/08 10:29:42;;;;;;;0.50;0.40;;;;;;;10.97;100.00;99238.75;5006186;28;21018;-49
2023/01/08 10:32:14;;;;;;;0.40;0.33;;;;;;;11.11;100.00;99237.22;5002511;28;20448;-50
2023/01/08 10:34:51;;;;;;;1.03;0.97;;;;;;;11.16;100.00;99243.19;5012659;28;20866;-49
2023/01/08 10:37:23;;;;;;;0.40;0.40;;;;;;;11.20;100.00;99228.78;5012551;28;20891;-50
2023/01/08 10:39:51;;;;;;;0.60;0.30;;;;;;;11.39;100.00;99239.41;4999466;28;20498;-50
2023/01/08 10:42:19;;;;;;;0.50;0.50;;;;;;;11.48;100.00;99226.50;5012764;28;20463;-50
2023/01/08 10:44:53;;;;;;;0.40;0.40;;;;;;;11.64;100.00;99231.06;5012342;28;20487;-50
2023/01/08 10:47:20;;;;;;;0.40;0.30;;;;;;;11.67;100.00;99230.94;5012627;28;20468;-51
2023/01/08 10:49:47;;;;;;;0.50;0.40;;;;;;;11.66;100.00;99227.41;5012751;28;20452;-52
2023/01/08 10:52:31;;;;;;;0.40;0.30;;;;;;;11.48;100.00;99221.19;5012486;28;20449;-50
2023/01/08 10:55:21;;;;;;;0.50;0.33;;;;;;;11.51;100.00;99215.72;5012563;28;20455;-51
2023/01/08 10:57:58;;;;;;;0.40;0.30;;;;;;;11.69;100.00;99213.94;5012541;28;21063;-50
2023/01/08 11:00:31;;;;;;;0.70;0.50;;;;;;;11.48;100.00;99199.88;5012627;28;20455;-50
2023/01/08 11:03:01;;;;;;;1.33;1.00;;;;;;;11.79;100.00;99196.59;5012349;28;20449;-51
2023/01/08 11:05:30;;;;;;;1.43;1.07;;;;;;;11.53;100.00;99205.00;5012185;28;20449;-51
2023/01/08 11:07:58;;;;;;;0.60;0.40;;;;;;;11.70;100.00;99197.03;4996892;28;20491;-53
2023/01/08 11:10:26;;;;;;;1.13;0.40;;;;;;;11.70;100.00;99196.16;5010553;28;20452;-50
2023/01/08 11:12:58;;;;;;;0.50;0.30;;;;;;;11.84;100.00;99196.34;5005205;28;20805;-51
2023/01/08 11:15:31;;;;;;;0.40;0.40;;;;;;;11.83;100.00;99183.97;5010623;28;20522;-50
2023/01/08 11:18:09;;;;;;;0.50;0.50;;;;;;;11.89;100.00;99188.97;5012533;28;20563;-51
2023/01/08 11:20:37;;;;;;;13.30;1.47;;;;;;;12.00;100.00;99183.09;5000631;28;20449;-51
2023/01/08 11:23:23;;;;;;;0.30;0.30;;;;;;;12.18;100.00;99173.28;4999020;28;20445;-51
2023/01/08 11:26:15;;;;;;;4.43;1.13;;;;;;;12.07;100.00;99161.41;5007687;28;20460;-50
2023/01/08 11:29:03;;;;;;;0.40;0.30;;;;;;;12.08;100.00;99163.13;4993922;28;20460;-51
2023/01/08 11:31:53;;;;;;;0.60;0.40;;;;;;;12.06;100.00;99173.00;4999041;28;20475;-50
2023/01/08 11:34:33;;;;;;;0.53;0.50;;;;;;;12.16;100.00;99154.72;5011982;28;20464;-50